Darstellungsparameter: Aktuell verwendete Einstellungen:
Skalierung der Graphiken ... ?
xyx+y,   Skalierungsfaktor:      Skalierung: Modus: x, Faktor: 1
Darstellungszeitraum ... ?
Vom - - bis: - -   Zeitraum: 15.08.2016 - 15.08.2016
Min/Max/Avg-Anzeige ... ?
Zeige MMA aktuell
Zeige MMA Monat
Zeige MMA alles
Zeige --A aktuell
Zeige --A Monat
Zeige --A alles
Keine MMA-Anzeige
MMA:
Keine MMA-Graphiken
MMA-Basis: 15.08.2016 - 15.08.2016
Quicknavigation für Darstellung... ?
Tage:      1T, 2T, 3T, 5T -1T -2T -3T -5T +1T +2T +3T +5T
Wochen: 1W, 2W, 3W -1W -2W -3W +1W +2W +3W
Monate: 1M, 3M, 6M -1M -3M -6M +1M +3M +6M
Jahre:    1J, 3J, 5J, 10J -1J -3J -5J -10J +1J +3J +5J +10J
Nutze für die Darstellung ... ?
Originaldaten oder Mittelwerte auf ...
Stundenbasis Tagesbasis Wochenbasis
Monatsbasis Jahresbasis      Datenbasis: Original-Daten
Darstellen als:
Statistik (Auto) Statistik J:M      Darstellung:
Zur Graphik,    zurück zur Übersicht aller Sensoren.
 
Tabellarische Datenbersicht: ?
 
Sensor: Nr:Datum:Temp:Feuchte:Taupunkt:
Aussen-T/F 1 15-08-2016 00:00:00 17.4 C 87 % 15.21 C
2 15-08-2016 00:05:00 17.4 C 87 % 15.21 C
3 15-08-2016 00:10:00 17.5 C 87 % 15.31 C
4 15-08-2016 00:15:00 17.6 C 87 % 15.41 C
5 15-08-2016 00:20:00 17.6 C 88 % 15.59 C
6 15-08-2016 00:25:00 17.6 C 88 % 15.59 C
7 15-08-2016 00:30:00 17.6 C 87 % 15.41 C
8 15-08-2016 00:35:00 17.6 C 87 % 15.41 C
9 15-08-2016 00:40:00 17.5 C 87 % 15.31 C
10 15-08-2016 00:45:00 17.4 C 87 % 15.21 C
11 15-08-2016 00:50:00 17.4 C 87 % 15.21 C
12 15-08-2016 00:55:00 17.3 C 87 % 15.12 C
13 15-08-2016 01:00:00 17.2 C 87 % 15.02 C
14 15-08-2016 01:05:00 17.1 C 87 % 14.92 C
15 15-08-2016 01:10:00 17.1 C 87 % 14.92 C
16 15-08-2016 01:15:00 16.9 C 86 % 14.54 C
17 15-08-2016 01:20:00 16.8 C 87 % 14.62 C
18 15-08-2016 01:25:00 16.7 C 87 % 14.53 C
19 15-08-2016 01:30:00 16.6 C 87 % 14.43 C
20 15-08-2016 01:35:00 16.4 C 87 % 14.23 C
21 15-08-2016 01:40:00 16.3 C 87 % 14.13 C
22 15-08-2016 01:45:00 16.3 C 88 % 14.31 C
23 15-08-2016 01:50:00 16.2 C 88 % 14.21 C
24 15-08-2016 01:55:00 16.1 C 88 % 14.11 C
25 15-08-2016 02:00:00 16.1 C 88 % 14.11 C
Sensor: Nr:Datum:Temp:Feuchte:Taupunkt:
Aussen-T/F 26 15-08-2016 02:05:00 16 C 88 % 14.01 C
27 15-08-2016 02:10:00 15.9 C 89 % 14.09 C
28 15-08-2016 02:15:00 15.8 C 89 % 13.99 C
29 15-08-2016 02:20:00 15.8 C 89 % 13.99 C
30 15-08-2016 02:25:00 15.7 C 89 % 13.89 C
31 15-08-2016 02:30:00 15.7 C 89 % 13.89 C
32 15-08-2016 02:35:00 15.6 C 89 % 13.79 C
33 15-08-2016 02:40:00 15.6 C 89 % 13.79 C
34 15-08-2016 02:45:00 15.6 C 89 % 13.79 C
35 15-08-2016 02:50:00 15.5 C 90 % 13.87 C
36 15-08-2016 02:55:00 15.5 C 90 % 13.87 C
37 15-08-2016 03:00:00 15.5 C 90 % 13.87 C
38 15-08-2016 03:05:00 15.4 C 90 % 13.77 C
39 15-08-2016 03:10:00 15.3 C 90 % 13.67 C
40 15-08-2016 03:15:00 15.3 C 90 % 13.67 C
41 15-08-2016 03:20:00 15.2 C 90 % 13.57 C
42 15-08-2016 03:25:00 15.2 C 91 % 13.74 C
43 15-08-2016 03:30:00 15.1 C 91 % 13.64 C
44 15-08-2016 03:35:00 15.1 C 91 % 13.64 C
45 15-08-2016 03:40:00 15 C 91 % 13.54 C
46 15-08-2016 03:45:00 15 C 91 % 13.54 C
47 15-08-2016 03:50:00 14.9 C 92 % 13.61 C
48 15-08-2016 03:55:00 14.9 C 92 % 13.61 C
49 15-08-2016 04:00:00 14.9 C 92 % 13.61 C
50 15-08-2016 04:05:00 14.9 C 92 % 13.61 C
Sensor: Nr:Datum:Temp:Feuchte:Taupunkt:
Aussen-T/F 51 15-08-2016 04:10:00 14.9 C 92 % 13.61 C
52 15-08-2016 04:15:00 14.9 C 92 % 13.61 C
53 15-08-2016 04:20:00 14.8 C 92 % 13.51 C
54 15-08-2016 04:25:00 14.8 C 92 % 13.51 C
55 15-08-2016 04:30:00 14.7 C 92 % 13.41 C
56 15-08-2016 04:35:00 14.7 C 92 % 13.41 C
57 15-08-2016 04:40:00 14.6 C 92 % 13.32 C
58 15-08-2016 04:45:00 14.6 C 92 % 13.32 C
59 15-08-2016 04:50:00 14.6 C 92 % 13.32 C
60 15-08-2016 04:55:00 14.4 C 92 % 13.12 C
61 15-08-2016 05:00:00 14.4 C 92 % 13.12 C
62 15-08-2016 05:05:00 14.4 C 93 % 13.28 C
63 15-08-2016 05:10:00 14.3 C 93 % 13.18 C
64 15-08-2016 05:15:00 14.3 C 93 % 13.18 C
65 15-08-2016 05:20:00 14.3 C 93 % 13.18 C
66 15-08-2016 05:25:00 14.3 C 93 % 13.18 C
67 15-08-2016 05:30:00 14.3 C 93 % 13.18 C
68 15-08-2016 05:35:00 14.3 C 93 % 13.18 C
69 15-08-2016 05:40:00 14.2 C 93 % 13.08 C
70 15-08-2016 05:45:00 14.2 C 93 % 13.08 C
71 15-08-2016 05:50:00 14.2 C 93 % 13.08 C
72 15-08-2016 05:55:00 14.1 C 93 % 12.99 C
73 15-08-2016 06:00:00 14.1 C 93 % 12.99 C
74 15-08-2016 06:05:00 14.1 C 93 % 12.99 C
75 15-08-2016 06:10:00 14.1 C 93 % 12.99 C
Sensor: Nr:Datum:Temp:Feuchte:Taupunkt:
Aussen-T/F 76 15-08-2016 06:15:00 14.1 C 93 % 12.99 C
77 15-08-2016 06:20:00 14.1 C 94 % 13.15 C
78 15-08-2016 06:25:00 14.1 C 94 % 13.15 C
79 15-08-2016 06:30:00 14.1 C 94 % 13.15 C
80 15-08-2016 06:35:00 14.2 C 94 % 13.25 C
81 15-08-2016 06:40:00 14.2 C 94 % 13.25 C
82 15-08-2016 06:45:00 14.2 C 94 % 13.25 C
83 15-08-2016 06:50:00 14.3 C 94 % 13.35 C
84 15-08-2016 06:55:00 14.3 C 94 % 13.35 C
85 15-08-2016 07:00:00 14.4 C 94 % 13.45 C
86 15-08-2016 07:05:00 14.4 C 94 % 13.45 C
87 15-08-2016 07:10:00 14.5 C 94 % 13.55 C
88 15-08-2016 07:15:00 14.6 C 94 % 13.65 C
89 15-08-2016 07:20:00 14.7 C 94 % 13.74 C
90 15-08-2016 07:25:00 14.7 C 94 % 13.74 C
91 15-08-2016 07:30:00 14.8 C 94 % 13.84 C
92 15-08-2016 07:35:00 14.8 C 93 % 13.68 C
93 15-08-2016 07:40:00 14.9 C 93 % 13.78 C
94 15-08-2016 07:45:00 14.9 C 93 % 13.78 C
95 15-08-2016 07:50:00 14.8 C 92 % 13.51 C
96 15-08-2016 07:55:00 14.8 C 92 % 13.51 C
97 15-08-2016 08:00:00 14.8 C 92 % 13.51 C
98 15-08-2016 08:05:00 14.7 C 92 % 13.41 C
99 15-08-2016 08:10:00 14.7 C 92 % 13.41 C
100 15-08-2016 08:15:00 14.7 C 93 % 13.58 C
Sensor: Nr:Datum:Temp:Feuchte:Taupunkt:
Aussen-T/F 101 15-08-2016 08:20:00 14.7 C 93 % 13.58 C
102 15-08-2016 08:25:00 14.7 C 93 % 13.58 C
103 15-08-2016 08:30:00 14.7 C 93 % 13.58 C
104 15-08-2016 08:35:00 14.7 C 93 % 13.58 C
105 15-08-2016 08:40:00 14.7 C 93 % 13.58 C
106 15-08-2016 08:45:00 14.8 C 93 % 13.68 C
107 15-08-2016 08:50:00 14.8 C 93 % 13.68 C
108 15-08-2016 08:55:00 14.8 C 93 % 13.68 C
109 15-08-2016 09:00:00 14.8 C 93 % 13.68 C
110 15-08-2016 09:05:00 14.9 C 93 % 13.78 C
111 15-08-2016 09:10:00 14.9 C 93 % 13.78 C
112 15-08-2016 09:15:00 15 C 93 % 13.88 C
113 15-08-2016 09:20:00 15 C 93 % 13.88 C
114 15-08-2016 09:25:00 15.1 C 93 % 13.98 C
115 15-08-2016 09:30:00 15.1 C 93 % 13.98 C
116 15-08-2016 09:35:00 15.2 C 93 % 14.08 C
117 15-08-2016 09:40:00 15.2 C 93 % 14.08 C
118 15-08-2016 09:45:00 15.3 C 93 % 14.18 C
119 15-08-2016 09:50:00 15.4 C 93 % 14.27 C
120 15-08-2016 09:55:00 15.5 C 93 % 14.37 C
121 15-08-2016 10:00:00 15.6 C 93 % 14.47 C
122 15-08-2016 10:05:00 15.7 C 93 % 14.57 C
123 15-08-2016 10:10:00 15.8 C 93 % 14.67 C
124 15-08-2016 10:15:00 15.8 C 93 % 14.67 C
125 15-08-2016 10:20:00 15.9 C 93 % 14.77 C
Sensor: Nr:Datum:Temp:Feuchte:Taupunkt:
Aussen-T/F 126 15-08-2016 10:25:00 16.1 C 92 % 14.8 C
127 15-08-2016 10:30:00 16.2 C 93 % 15.07 C
128 15-08-2016 10:35:00 16.4 C 92 % 15.1 C
129 15-08-2016 10:40:00 16.5 C 91 % 15.03 C
130 15-08-2016 10:45:00 16.6 C 90 % 14.95 C
131 15-08-2016 10:50:00 16.8 C 90 % 15.15 C
132 15-08-2016 10:55:00 16.9 C 89 % 15.08 C
133 15-08-2016 11:00:00 17.1 C 87 % 14.92 C
134 15-08-2016 11:05:00 17.3 C 86 % 14.94 C
135 15-08-2016 11:10:00 17.7 C 86 % 15.33 C
136 15-08-2016 11:15:00 17.8 C 87 % 15.61 C
137 15-08-2016 11:20:00 18 C 86 % 15.62 C
138 15-08-2016 11:25:00 18.2 C 82 % 15.08 C
139 15-08-2016 11:30:00 18.4 C 82 % 15.27 C
140 15-08-2016 11:35:00 18.6 C 81 % 15.28 C
141 15-08-2016 11:40:00 18.8 C 82 % 15.66 C
142 15-08-2016 11:45:00 19.1 C 79 % 15.37 C
143 15-08-2016 11:50:00 19.4 C 77 % 15.27 C
144 15-08-2016 11:55:00 19.7 C 76 % 15.35 C
145 15-08-2016 12:00:00 20 C 75 % 15.43 C
146 15-08-2016 12:05:00 20.1 C 73 % 15.11 C
147 15-08-2016 12:10:00 20.2 C 74 % 15.42 C
148 15-08-2016 12:15:00 20.4 C 73 % 15.4 C
149 15-08-2016 12:20:00 20.6 C 72 % 15.38 C
150 15-08-2016 12:25:00 20.7 C 72 % 15.47 C
Sensor: Nr:Datum:Temp:Feuchte:Taupunkt:
Aussen-T/F 151 15-08-2016 12:30:00 20.8 C 71 % 15.35 C
152 15-08-2016 12:35:00 20.8 C 71 % 15.35 C
153 15-08-2016 12:40:00 20.9 C 71 % 15.45 C
154 15-08-2016 12:45:00 21 C 71 % 15.54 C
155 15-08-2016 12:50:00 21.1 C 69 % 15.19 C
156 15-08-2016 12:55:00 21.2 C 69 % 15.29 C
157 15-08-2016 13:00:00 21.3 C 70 % 15.61 C
158 15-08-2016 13:05:00 21.4 C 68 % 15.25 C
159 15-08-2016 13:10:00 21.6 C 68 % 15.44 C
160 15-08-2016 13:15:00 21.7 C 66 % 15.07 C
161 15-08-2016 13:20:00 21.8 C 66 % 15.17 C
162 15-08-2016 13:25:00 22.1 C 66 % 15.45 C
163 15-08-2016 13:30:00 22.3 C 65 % 15.4 C
164 15-08-2016 13:35:00 22.3 C 65 % 15.4 C
165 15-08-2016 13:40:00 22.4 C 64 % 15.26 C
166 15-08-2016 13:45:00 22.5 C 63 % 15.11 C
167 15-08-2016 13:50:00 22.7 C 62 % 15.05 C
168 15-08-2016 13:55:00 22.8 C 62 % 15.14 C
169 15-08-2016 14:00:00 22.8 C 63 % 15.39 C
170 15-08-2016 14:05:00 22.9 C 63 % 15.48 C
171 15-08-2016 14:10:00 22.9 C 61 % 14.98 C
172 15-08-2016 14:15:00 23 C 63 % 15.58 C
173 15-08-2016 14:20:00 23.1 C 62 % 15.42 C
174 15-08-2016 14:25:00 23.1 C 61 % 15.17 C
175 15-08-2016 14:30:00 23.1 C 61 % 15.17 C
Sensor: Nr:Datum:Temp:Feuchte:Taupunkt:
Aussen-T/F 176 15-08-2016 14:35:00 23.2 C 62 % 15.52 C
177 15-08-2016 14:40:00 23.2 C 62 % 15.52 C
178 15-08-2016 14:45:00 23.3 C 60 % 15.1 C
179 15-08-2016 14:50:00 23.4 C 59 % 14.93 C
180 15-08-2016 14:55:00 23.6 C 60 % 15.38 C
181 15-08-2016 15:00:00 23.8 C 59 % 15.31 C
182 15-08-2016 15:05:00 24 C 57 % 14.96 C
183 15-08-2016 15:10:00 24.1 C 58 % 15.32 C
184 15-08-2016 15:15:00 24.2 C 58 % 15.42 C
185 15-08-2016 15:20:00 24.3 C 57 % 15.24 C
186 15-08-2016 15:25:00 24.4 C 57 % 15.33 C
187 15-08-2016 15:30:00 24.6 C 58 % 15.79 C
188 15-08-2016 15:35:00 24.9 C 56 % 15.52 C
189 15-08-2016 15:40:00 25.1 C 56 % 15.71 C
190 15-08-2016 15:45:00 25 C 56 % 15.61 C
191 15-08-2016 15:50:00 25 C 58 % 16.16 C
192 15-08-2016 15:55:00 25.1 C 56 % 15.71 C
193 15-08-2016 16:00:00 25.2 C 55 % 15.52 C
194 15-08-2016 16:05:00 25.3 C 55 % 15.61 C
195 15-08-2016 16:10:00 25.4 C 55 % 15.7 C
196 15-08-2016 16:15:00 25.2 C 55 % 15.52 C
197 15-08-2016 16:20:00 25 C 56 % 15.61 C
198 15-08-2016 16:25:00 25.2 C 56 % 15.8 C
199 15-08-2016 16:30:00 25.4 C 56 % 15.99 C
200 15-08-2016 16:35:00 25.8 C 54 % 15.79 C
Sensor: Nr:Datum:Temp:Feuchte:Taupunkt:
Aussen-T/F 201 15-08-2016 16:40:00 26 C 55 % 16.26 C
202 15-08-2016 16:45:00 26.2 C 54 % 16.16 C
203 15-08-2016 16:50:00 26.3 C 53 % 15.96 C
204 15-08-2016 16:55:00 26.5 C 53 % 16.14 C
205 15-08-2016 17:00:00 26.6 C 51 % 15.63 C
206 15-08-2016 17:05:00 26.4 C 52 % 15.75 C
207 15-08-2016 17:10:00 26.3 C 53 % 15.96 C
208 15-08-2016 17:15:00 26.4 C 52 % 15.75 C
209 15-08-2016 17:20:00 26.4 C 52 % 15.75 C
210 15-08-2016 17:25:00 26.3 C 52 % 15.66 C
211 15-08-2016 17:30:00 26.4 C 52 % 15.75 C
212 15-08-2016 17:35:00 26.5 C 51 % 15.54 C
213 15-08-2016 17:40:00 26.5 C 50 % 15.23 C
214 15-08-2016 17:45:00 26.3 C 51 % 15.36 C
215 15-08-2016 17:50:00 26.2 C 52 % 15.57 C
216 15-08-2016 17:55:00 26.2 C 53 % 15.87 C
217 15-08-2016 18:00:00 26.2 C 52 % 15.57 C
218 15-08-2016 18:05:00 26.1 C 52 % 15.48 C
219 15-08-2016 18:10:00 25.8 C 52 % 15.2 C
220 15-08-2016 18:15:00 25.5 C 54 % 15.51 C
221 15-08-2016 18:20:00 25.2 C 53 % 14.94 C
222 15-08-2016 18:25:00 25 C 55 % 15.33 C
223 15-08-2016 18:30:00 24.9 C 54 % 14.95 C
224 15-08-2016 18:35:00 25.1 C 54 % 15.14 C
225 15-08-2016 18:40:00 24.9 C 55 % 15.24 C
Sensor: Nr:Datum:Temp:Feuchte:Taupunkt:
Aussen-T/F 226 15-08-2016 18:45:00 24.8 C 55 % 15.15 C
227 15-08-2016 18:50:00 25.2 C 55 % 15.52 C
228 15-08-2016 18:55:00 25.5 C 54 % 15.51 C
229 15-08-2016 19:00:00 25.7 C 54 % 15.7 C
230 15-08-2016 19:05:00 25.8 C 53 % 15.5 C
231 15-08-2016 19:10:00 25.8 C 53 % 15.5 C
232 15-08-2016 19:15:00 25.6 C 53 % 15.31 C
233 15-08-2016 19:20:00 25.4 C 54 % 15.42 C
234 15-08-2016 19:25:00 25.1 C 54 % 15.14 C
235 15-08-2016 19:30:00 24.8 C 55 % 15.15 C
236 15-08-2016 19:35:00 24.5 C 56 % 15.15 C
237 15-08-2016 19:40:00 24.3 C 56 % 14.96 C
238 15-08-2016 19:45:00 24.1 C 57 % 15.05 C
239 15-08-2016 19:50:00 23.9 C 58 % 15.14 C
240 15-08-2016 19:55:00 23.8 C 58 % 15.04 C
241 15-08-2016 20:00:00 23.7 C 58 % 14.95 C
242 15-08-2016 20:05:00 23.6 C 59 % 15.12 C
243 15-08-2016 20:10:00 23.4 C 64 % 16.2 C
244 15-08-2016 20:15:00 23.2 C 66 % 16.5 C
245 15-08-2016 20:20:00 22.8 C 68 % 16.59 C
246 15-08-2016 20:25:00 22.3 C 67 % 15.88 C
247 15-08-2016 20:30:00 21.7 C 71 % 16.21 C
248 15-08-2016 20:35:00 21.2 C 73 % 16.17 C
249 15-08-2016 20:40:00 20.8 C 75 % 16.21 C
250 15-08-2016 20:45:00 20.3 C 75 % 15.72 C
Sensor: Nr:Datum:Temp:Feuchte:Taupunkt:
Aussen-T/F 251 15-08-2016 20:50:00 19.9 C 76 % 15.54 C
252 15-08-2016 20:55:00 19.7 C 77 % 15.56 C
253 15-08-2016 21:00:00 19.4 C 77 % 15.27 C
254 15-08-2016 21:05:00 19.3 C 78 % 15.37 C
255 15-08-2016 21:10:00 19.1 C 79 % 15.37 C
256 15-08-2016 21:15:00 18.9 C 79 % 15.18 C
257 15-08-2016 21:20:00 18.8 C 79 % 15.08 C
258 15-08-2016 21:25:00 18.6 C 80 % 15.08 C
259 15-08-2016 21:30:00 18.4 C 80 % 14.89 C
260 15-08-2016 21:35:00 18.3 C 80 % 14.79 C
261 15-08-2016 21:40:00 18.3 C 80 % 14.79 C
262 15-08-2016 21:45:00 18.3 C 80 % 14.79 C
263 15-08-2016 21:50:00 18.2 C 81 % 14.89 C
264 15-08-2016 21:55:00 18.2 C 81 % 14.89 C
265 15-08-2016 22:00:00 18.2 C 81 % 14.89 C
266 15-08-2016 22:05:00 18.2 C 80 % 14.69 C
267 15-08-2016 22:10:00 18.2 C 80 % 14.69 C
268 15-08-2016 22:15:00 18.1 C 81 % 14.79 C
269 15-08-2016 22:20:00 18 C 81 % 14.69 C
270 15-08-2016 22:25:00 17.9 C 82 % 14.78 C
271 15-08-2016 22:30:00 17.8 C 82 % 14.69 C
272 15-08-2016 22:35:00 17.6 C 82 % 14.49 C
273 15-08-2016 22:40:00 17.6 C 83 % 14.68 C
274 15-08-2016 22:45:00 17.4 C 83 % 14.48 C
275 15-08-2016 22:50:00 17.3 C 83 % 14.39 C
Sensor: Nr:Datum:Temp:Feuchte:Taupunkt:
Aussen-T/F 276 15-08-2016 22:55:00 17.2 C 84 % 14.47 C
277 15-08-2016 23:00:00 17.1 C 84 % 14.38 C
278 15-08-2016 23:05:00 17 C 84 % 14.28 C
279 15-08-2016 23:10:00 16.9 C 85 % 14.36 C
280 15-08-2016 23:15:00 16.8 C 85 % 14.26 C
281 15-08-2016 23:20:00 16.8 C 85 % 14.26 C
282 15-08-2016 23:25:00 16.7 C 85 % 14.17 C
283 15-08-2016 23:30:00 16.7 C 85 % 14.17 C
284 15-08-2016 23:35:00 16.6 C 85 % 14.07 C
285 15-08-2016 23:40:00 16.5 C 85 % 13.97 C
286 15-08-2016 23:45:00 16.4 C 85 % 13.87 C
287 15-08-2016 23:50:00 16.3 C 85 % 13.77 C
288 15-08-2016 23:55:00 16.2 C 85 % 13.68 C

Legende:
   Min
   Max


Maximal/Minimal-Werte vom 15.08.2016 - 15.08.2016

Sensor Min Max Avg
Temp
(Aussen-T/F)
14.1 °C
15-08-2016  05:55:00
26.6 °C
15-08-2016  17:00:00
18.95 °C
Feuchte
(Aussen-T/F)
50 %
15-08-2016  17:40:00
94 %
15-08-2016  06:20:00
78.02 %
Taupunkt
(Aussen-T/F)
12.99 C
15-08-2016  05:55:00
16.59 C
15-08-2016  20:20:00
14.6 C

Die Daten stammen von einer Davis Vantage Pro 2 Wetter-Station und werden unter Linux mit der Software wview2wettercgi und aufbereitet. Alle Angaben erfolgen ohne Gewähr für ihre Vollständigkeit oder Richtigkeit.
Kontakt: Rainer Krienke krienke@uni-koblenz.de . Meine Webseiten an der Uni Koblenz oder privat.
Version: $Revision: 0.78 $